Time;durP1;ratioP1;P1;durP2;ratioP2;P2;SDS_P1;SDS_P2;PMS_P1;PMS_P2;Temp;Humidity;BMP_temperature;BMP_pressure;BME280_temperature;BME280_humidity;BME280_pressure;Samples;Min_cycle;Max_cycle;Signal;HPM_P1;HPM_P2
2023/07/09 00:02:22;;;;;;;3.45;2.00;;;25.30;65.60;;;;;;5069619;28;20124;-63
2023/07/09 00:04:47;;;;;;;2.83;2.28;;;25.30;65.60;;;;;;5066713;28;20078;-64
2023/07/09 00:07:33;;;;;;;2.33;1.70;;;25.30;65.60;;;;;;5067511;28;20024;-63
2023/07/09 00:09:59;;;;;;;3.83;1.80;;;25.30;65.60;;;;;;5073277;28;20036;-62
2023/07/09 00:12:26;;;;;;;3.15;1.65;;;25.30;65.80;;;;;;5074083;28;20119;-62
2023/07/09 00:14:52;;;;;;;2.22;1.65;;;25.20;65.80;;;;;;5075719;28;20037;-71
2023/07/09 00:17:30;;;;;;;2.75;1.88;;;25.20;65.90;;;;;;5072013;28;20040;-72
2023/07/09 00:19:57;;;;;;;3.95;2.00;;;25.20;66.00;;;;;;5072243;28;20030;-72
2023/07/09 00:22:23;;;;;;;2.92;1.70;;;25.20;66.30;;;;;;5068046;28;20029;-72
2023/07/09 00:24:50;;;;;;;2.15;1.90;;;25.10;66.30;;;;;;5069199;28;20055;-72
2023/07/09 00:27:30;;;;;;;3.67;2.55;;;25.10;66.20;;;;;;5072937;28;20023;-72
2023/07/09 00:29:56;;;;;;;2.90;1.77;;;25.10;66.10;;;;;;5071868;28;20107;-72
2023/07/09 00:32:22;;;;;;;3.17;2.03;;;25.10;66.10;;;;;;5067660;28;20111;-72
2023/07/09 00:34:48;;;;;;;2.58;1.92;;;25.10;66.10;;;;;;5077734;28;20110;-72
2023/07/09 00:37:25;;;;;;;3.17;1.70;;;25.10;66.20;;;;;;5076150;28;20028;-72
2023/07/09 00:39:51;;;;;;;1.85;1.58;;;25.10;66.30;;;;;;5071895;28;20555;-72
2023/07/09 00:42:23;;;;;;;2.97;1.83;;;25.10;66.40;;;;;;5052577;28;20028;-72
2023/07/09 00:44:54;;;;;;;3.55;1.77;;;25.00;66.30;;;;;;5069348;28;20486;-72
2023/07/09 00:47:49;;;;;;;1.52;1.42;;;25.00;66.30;;;;;;5068928;28;20457;-72
2023/07/09 00:50:30;;;;;;;2.45;1.98;;;25.00;66.40;;;;;;5071625;28;20120;-73
2023/07/09 00:53:07;;;;;;;2.38;1.90;;;25.00;66.50;;;;;;5067333;28;20027;-73
2023/07/09 00:55:37;;;;;;;1.92;1.58;;;24.90;66.50;;;;;;5073723;28;20494;-73
2023/07/09 00:58:07;;;;;;;2.47;1.88;;;24.90;66.60;;;;;;5066668;28;20087;-72
2023/07/09 01:00:46;;;;;;;2.75;2.03;;;24.90;66.60;;;;;;5070360;28;20023;-74
2023/07/09 01:03:34;;;;;;;3.05;2.00;;;24.90;66.70;;;;;;5064364;28;20032;-64
2023/07/09 01:06:01;;;;;;;3.15;2.00;;;24.80;66.80;;;;;;5083575;28;20052;-64
2023/07/09 01:08:31;;;;;;;6.72;2.25;;;24.80;66.90;;;;;;5081910;28;20094;-62
2023/07/09 01:10:58;;;;;;;3.65;1.92;;;24.80;67.00;;;;;;5072608;28;20475;-64
2023/07/09 01:13:26;;;;;;;2.53;1.70;;;24.70;67.00;;;;;;5070588;28;20029;-64
2023/07/09 01:15:54;;;;;;;2.83;1.95;;;24.70;67.00;;;;;;5073954;28;20159;-73
2023/07/09 01:18:21;;;;;;;2.25;1.70;;;24.70;67.10;;;;;;5071834;28;20098;-73
2023/07/09 01:20:47;;;;;;;3.83;1.65;;;24.70;67.10;;;;;;5072546;28;20046;-64
2023/07/09 01:23:14;;;;;;;1.67;1.45;;;24.70;67.10;;;;;;5072383;28;20037;-63
2023/07/09 01:25:52;;;;;;;2.05;1.35;;;24.70;67.10;;;;;;5077439;28;20021;-73
2023/07/09 01:28:20;;;;;;;2.25;1.63;;;24.70;67.20;;;;;;5075444;28;20038;-73
2023/07/09 01:30:53;;;;;;;2.03;1.50;;;24.60;67.20;;;;;;5079800;28;20024;-73
2023/07/09 01:33:18;;;;;;;1.92;1.50;;;24.60;67.20;;;;;;5076087;28;20406;-73
2023/07/09 01:35:44;;;;;;;3.13;1.45;;;24.60;67.20;;;;;;5075570;28;20052;-73
2023/07/09 01:38:10;;;;;;;3.97;1.65;;;24.50;67.20;;;;;;5070271;28;20107;-73
2023/07/09 01:40:36;;;;;;;1.98;1.55;;;24.50;67.20;;;;;;5077978;28;20016;-73
2023/07/09 01:43:06;;;;;;;1.92;1.83;;;24.50;67.30;;;;;;5070749;28;20395;-73
2023/07/09 01:45:33;;;;;;;2.30;1.55;;;24.40;67.30;;;;;;5077826;28;20122;-73
2023/07/09 01:47:59;;;;;;;1.75;1.55;;;24.40;67.50;;;;;;5069321;28;20031;-73
2023/07/09 01:50:26;;;;;;;2.15;1.17;;;24.40;67.60;;;;;;5074108;28;21271;-73
2023/07/09 01:52:53;;;;;;;1.90;1.35;;;24.40;67.70;;;;;;5072579;28;20051;-73
2023/07/09 01:55:19;;;;;;;1.20;1.10;;;24.40;67.70;;;;;;5072322;28;20024;-73
2023/07/09 01:57:45;;;;;;;2.53;1.83;;;24.30;67.80;;;;;;5074825;28;20046;-63
2023/07/09 02:00:15;;;;;;;2.33;1.25;;;24.30;67.90;;;;;;5069023;28;20033;-63
2023/07/09 02:02:48;;;;;;;2.33;1.40;;;24.30;67.90;;;;;;5065776;28;20063;-63
2023/07/09 02:05:19;;;;;;;1.98;1.70;;;24.30;67.90;;;;;;5069427;28;20475;-64
2023/07/09 02:07:45;;;;;;;8.70;1.73;;;24.20;68.00;;;;;;5078036;28;20020;-63
2023/07/09 02:10:12;;;;;;;1.70;1.10;;;24.20;68.10;;;;;;5071953;28;20066;-63
2023/07/09 02:12:38;;;;;;;3.13;1.42;;;24.20;68.10;;;;;;5075324;28;20059;-63
2023/07/09 02:15:04;;;;;;;2.50;1.90;;;24.20;68.20;;;;;;5073187;28;20047;-64
2023/07/09 02:17:29;;;;;;;4.43;2.33;;;24.10;68.10;;;;;;5067532;28;20039;-63
2023/07/09 02:19:55;;;;;;;2.72;1.63;;;24.10;68.20;;;;;;5067197;28;20040;-63
2023/07/09 02:22:21;;;;;;;3.70;1.75;;;24.10;68.40;;;;;;5086316;28;20040;-63
2023/07/09 02:24:46;;;;;;;2.92;2.08;;;24.10;68.50;;;;;;5070502;28;20025;-64
2023/07/09 02:27:17;;;;;;;2.45;1.90;;;24.00;68.60;;;;;;5079266;28;20024;-64
2023/07/09 02:29:43;;;;;;;1.52;1.20;;;24.00;68.80;;;;;;5076920;28;20028;-64
2023/07/09 02:32:12;;;;;;;2.85;1.58;;;24.00;68.80;;;;;;5074635;28;20431;-64
2023/07/09 02:34:37;;;;;;;3.30;1.58;;;24.00;68.90;;;;;;5069890;28;20043;-69
2023/07/09 02:37:03;;;;;;;1.92;1.50;;;23.90;68.80;;;;;;5079113;28;20028;-73
2023/07/09 02:39:28;;;;;;;1.48;1.38;;;23.90;68.90;;;;;;5069494;28;20038;-63
2023/07/09 02:41:54;;;;;;;3.35;2.15;;;23.90;68.90;;;;;;5071637;28;20056;-63
2023/07/09 02:44:20;;;;;;;2.22;1.60;;;23.80;69.00;;;;;;5072961;28;20411;-63
2023/07/09 02:46:46;;;;;;;2.72;1.55;;;23.80;69.00;;;;;;5070482;28;20476;-64
2023/07/09 02:49:14;;;;;;;2.70;1.70;;;23.80;69.20;;;;;;5070867;28;20052;-63
2023/07/09 02:51:39;;;;;;;2.22;1.58;;;23.70;69.30;;;;;;5073919;28;20082;-63
2023/07/09 02:54:06;;;;;;;3.03;2.20;;;23.70;69.30;;;;;;5066989;28;20036;-63
2023/07/09 02:56:32;;;;;;;2.78;1.98;;;23.60;69.40;;;;;;5068573;28;20060;-64
2023/07/09 02:58:57;;;;;;;5.45;1.63;;;23.60;69.50;;;;;;5071178;28;20121;-63
2023/07/09 03:01:26;;;;;;;1.98;1.52;;;23.60;69.60;;;;;;5067727;28;20020;-63
2023/07/09 03:03:55;;;;;;;2.22;1.50;;;23.60;69.60;;;;;;5079461;28;20024;-63
2023/07/09 03:06:22;;;;;;;4.18;1.60;;;23.60;69.70;;;;;;5071836;28;20055;-62
2023/07/09 03:08:48;;;;;;;2.30;1.77;;;23.60;69.70;;;;;;5071867;28;20035;-72
2023/07/09 03:11:15;;;;;;;2.25;1.60;;;23.50;69.80;;;;;;5063099;28;20032;-73
2023/07/09 03:13:41;;;;;;;3.33;1.83;;;23.50;69.90;;;;;;5072140;28;20032;-73
2023/07/09 03:16:07;;;;;;;3.85;1.90;;;23.50;70.00;;;;;;5071501;28;20046;-73
2023/07/09 03:18:32;;;;;;;2.75;1.73;;;23.40;70.00;;;;;;5071294;28;20032;-73
2023/07/09 03:20:58;;;;;;;2.08;1.70;;;23.40;70.10;;;;;;5079218;28;20023;-63
2023/07/09 03:23:24;;;;;;;2.85;1.90;;;23.40;70.20;;;;;;5070382;28;20517;-63
2023/07/09 03:25:50;;;;;;;3.50;2.00;;;23.40;70.30;;;;;;5075894;28;20051;-64
2023/07/09 03:28:16;;;;;;;4.30;2.67;;;23.40;70.40;;;;;;5069696;28;20032;-64
2023/07/09 03:30:47;;;;;;;3.55;2.72;;;23.30;70.40;;;;;;5075833;28;20039;-62
2023/07/09 03:33:14;;;;;;;4.53;2.28;;;23.40;70.50;;;;;;5069916;28;20040;-63
2023/07/09 03:35:40;;;;;;;4.00;1.98;;;23.30;70.60;;;;;;5078585;28;20507;-63
2023/07/09 03:38:07;;;;;;;3.17;1.90;;;23.30;70.70;;;;;;5076748;28;20143;-63
2023/07/09 03:40:33;;;;;;;3.05;1.70;;;23.30;70.80;;;;;;5080505;28;20028;-63
2023/07/09 03:42:59;;;;;;;3.55;2.10;;;23.30;70.80;;;;;;5069739;28;20446;-62
2023/07/09 03:45:25;;;;;;;4.53;2.65;;;23.30;70.90;;;;;;5073797;28;20050;-63
2023/07/09 03:47:51;;;;;;;3.35;2.28;;;23.30;71.00;;;;;;5063218;28;20119;-63
2023/07/09 03:50:17;;;;;;;2.28;1.58;;;23.30;71.10;;;;;;5066729;28;20036;-63
2023/07/09 03:52:43;;;;;;;6.50;2.42;;;23.30;71.10;;;;;;5074259;28;20037;-63
2023/07/09 03:55:09;;;;;;;3.10;2.22;;;23.30;71.20;;;;;;5077970;28;20407;-63
2023/07/09 03:57:35;;;;;;;3.88;2.28;;;23.30;71.20;;;;;;5076317;28;20140;-63
2023/07/09 04:00:04;;;;;;;2.63;2.13;;;23.30;71.30;;;;;;5074897;28;20040;-63
2023/07/09 04:02:31;;;;;;;3.17;2.33;;;23.30;71.40;;;;;;5072524;28;20518;-63
2023/07/09 04:04:57;;;;;;;2.92;1.98;;;23.30;71.40;;;;;;5070959;28;20021;-73
2023/07/09 04:07:23;;;;;;;3.38;2.10;;;23.30;71.50;;;;;;5074408;28;20035;-63
2023/07/09 04:09:49;;;;;;;3.90;2.03;;;23.30;71.60;;;;;;5068287;28;20055;-63
2023/07/09 04:12:14;;;;;;;4.40;2.42;;;23.30;71.70;;;;;;5075607;28;20036;-63
2023/07/09 04:14:41;;;;;;;4.90;2.22;;;23.30;71.80;;;;;;5071049;28;20112;-63
2023/07/09 04:17:06;;;;;;;3.00;2.00;;;23.30;71.80;;;;;;5069755;28;20093;-63
2023/07/09 04:19:32;;;;;;;2.90;2.05;;;23.40;71.90;;;;;;5072020;28;20024;-64
2023/07/09 04:21:58;;;;;;;2.55;2.08;;;23.40;71.90;;;;;;5072339;28;20522;-63
2023/07/09 04:24:23;;;;;;;3.50;2.05;;;23.40;72.00;;;;;;5069537;28;20053;-63
2023/07/09 04:26:49;;;;;;;3.28;2.58;;;23.50;72.20;;;;;;5072076;28;20036;-63
2023/07/09 04:29:15;;;;;;;6.32;2.55;;;23.50;72.20;;;;;;5072720;28;20036;-64
2023/07/09 04:31:41;;;;;;;3.22;2.17;;;23.50;72.30;;;;;;5067629;28;20036;-63
2023/07/09 04:34:07;;;;;;;2.58;2.28;;;23.50;72.30;;;;;;5067566;28;20087;-63
2023/07/09 04:36:33;;;;;;;2.72;1.95;;;23.60;72.40;;;;;;5075219;28;20073;-64
2023/07/09 04:38:59;;;;;;;2.97;1.95;;;23.60;72.40;;;;;;5071186;28;20036;-64
2023/07/09 04:41:25;;;;;;;4.50;2.50;;;23.70;72.50;;;;;;5070686;28;20089;-73
2023/07/09 04:43:51;;;;;;;3.38;2.38;;;23.70;72.40;;;;;;5073750;28;20036;-74
2023/07/09 04:46:16;;;;;;;4.43;2.83;;;23.80;72.50;;;;;;5077606;28;20025;-73
2023/07/09 04:48:42;;;;;;;2.63;2.28;;;23.90;72.60;;;;;;5081081;28;20035;-74
2023/07/09 04:51:08;;;;;;;2.53;2.05;;;23.90;72.60;;;;;;5071288;28;20042;-74
2023/07/09 04:53:34;;;;;;;4.00;2.85;;;23.90;72.70;;;;;;5073858;28;20107;-74
2023/07/09 04:56:02;;;;;;;2.58;1.98;;;23.90;72.70;;;;;;5075607;28;20032;-72
2023/07/09 04:58:28;;;;;;;3.65;2.28;;;24.00;72.90;;;;;;5069649;28;20052;-72
2023/07/09 05:00:57;;;;;;;3.25;2.50;;;24.00;73.00;;;;;;5078571;28;20490;-63
2023/07/09 05:03:23;;;;;;;4.82;2.95;;;24.00;73.00;;;;;;5072978;28;20024;-62
2023/07/09 05:05:48;;;;;;;3.40;2.25;;;24.10;72.90;;;;;;5069546;28;20077;-62
2023/07/09 05:08:14;;;;;;;5.60;2.90;;;24.10;72.80;;;;;;5071157;28;20111;-62
2023/07/09 05:10:44;;;;;;;3.03;2.28;;;24.20;72.90;;;;;;5082361;28;20062;-65
2023/07/09 05:13:10;;;;;;;4.35;2.88;;;24.20;72.90;;;;;;5071273;28;20109;-65
2023/07/09 05:15:39;;;;;;;4.88;2.53;;;24.20;72.90;;;;;;5070229;28;20517;-62
2023/07/09 05:18:05;;;;;;;3.25;2.33;;;24.30;73.00;;;;;;5073225;28;20048;-63
2023/07/09 05:20:31;;;;;;;4.13;2.25;;;24.40;72.90;;;;;;5077569;28;20376;-63
2023/07/09 05:22:56;;;;;;;2.53;2.05;;;24.40;73.00;;;;;;5079055;28;20029;-63
2023/07/09 05:25:22;;;;;;;3.95;2.38;;;24.50;73.00;;;;;;5073836;28;20040;-63
2023/07/09 05:27:47;;;;;;;2.88;1.67;;;24.50;72.90;;;;;;5071283;28;20017;-63
2023/07/09 05:30:13;;;;;;;3.67;2.35;;;24.60;72.90;;;;;;5066004;28;20033;-63
2023/07/09 05:32:39;;;;;;;3.33;2.13;;;24.70;72.70;;;;;;5072800;28;20475;-63
2023/07/09 05:35:05;;;;;;;2.30;1.88;;;24.80;72.60;;;;;;5082038;28;20035;-64
2023/07/09 05:37:31;;;;;;;5.25;2.30;;;24.80;72.50;;;;;;5062090;28;20028;-63
2023/07/09 05:39:57;;;;;;;4.05;2.58;;;24.90;72.50;;;;;;5082985;28;20548;-63
2023/07/09 05:42:22;;;;;;;3.03;2.33;;;24.90;72.30;;;;;;5075330;28;20055;-63
2023/07/09 05:44:48;;;;;;;3.45;2.35;;;25.00;72.20;;;;;;5082849;28;20109;-63
2023/07/09 05:47:14;;;;;;;4.97;2.92;;;25.10;72.10;;;;;;5076759;28;20491;-63
2023/07/09 05:49:40;;;;;;;2.45;1.73;;;25.10;72.00;;;;;;5076057;28;20039;-63
2023/07/09 05:52:06;;;;;;;3.20;2.15;;;25.20;71.90;;;;;;5078894;28;20040;-63
2023/07/09 05:54:32;;;;;;;3.45;2.53;;;25.30;71.80;;;;;;5073394;28;20032;-63
2023/07/09 05:56:58;;;;;;;4.75;2.50;;;25.40;71.70;;;;;;5079052;28;20394;-63
2023/07/09 05:59:23;;;;;;;3.22;2.08;;;25.40;71.50;;;;;;5067063;28;20053;-64
2023/07/09 06:01:49;;;;;;;3.28;2.47;;;25.50;71.40;;;;;;5076687;28;20429;-63
2023/07/09 06:04:16;;;;;;;2.55;2.03;;;25.60;71.30;;;;;;5073852;28;20032;-63
2023/07/09 06:06:42;;;;;;;3.03;2.15;;;25.70;71.30;;;;;;5074459;28;20052;-63
2023/07/09 06:09:08;;;;;;;2.22;2.03;;;25.80;71.20;;;;;;5070243;28;20079;-63
2023/07/09 06:11:35;;;;;;;3.30;2.10;;;25.80;71.00;;;;;;5081431;28;20043;-63
2023/07/09 06:14:00;;;;;;;4.13;2.88;;;25.90;70.70;;;;;;5082328;28;20401;-63
2023/07/09 06:16:27;;;;;;;4.65;2.28;;;25.90;70.50;;;;;;5073546;28;20044;-64
2023/07/09 06:18:53;;;;;;;2.70;1.70;;;26.00;70.20;;;;;;5066815;28;20033;-63
2023/07/09 06:21:18;;;;;;;2.47;1.73;;;26.10;69.90;;;;;;5078034;28;20062;-63
2023/07/09 06:23:45;;;;;;;4.15;2.17;;;26.20;69.70;;;;;;5077926;28;20024;-63
2023/07/09 06:26:11;;;;;;;4.93;2.33;;;26.30;69.50;;;;;;5081145;28;20090;-63
2023/07/09 06:28:37;;;;;;;3.65;1.98;;;26.40;69.40;;;;;;5077875;28;20044;-63
2023/07/09 06:31:03;;;;;;;2.53;2.20;;;26.40;69.20;;;;;;5071157;28;20048;-63
2023/07/09 06:33:30;;;;;;;3.03;2.03;;;26.50;69.00;;;;;;5073833;28;20028;-63
2023/07/09 06:36:01;;;;;;;3.35;2.08;;;26.60;69.00;;;;;;5071690;28;20106;-73
2023/07/09 06:38:28;;;;;;;2.50;2.15;;;26.60;68.90;;;;;;5078300;28;20035;-73
2023/07/09 06:40:54;;;;;;;4.65;2.65;;;26.70;68.80;;;;;;5070267;28;20021;-73
2023/07/09 06:43:20;;;;;;;3.55;2.05;;;26.70;68.60;;;;;;5071212;28;20024;-73
2023/07/09 06:46:05;;;;;;;2.47;1.85;;;26.80;68.50;;;;;;5078552;28;20037;-74
2023/07/09 06:48:32;;;;;;;2.45;1.92;;;26.90;68.30;;;;;;5070660;28;20029;-73
2023/07/09 06:50:59;;;;;;;3.53;2.13;;;27.00;68.20;;;;;;5073818;28;20032;-74
2023/07/09 06:53:26;;;;;;;3.05;2.08;;;27.00;68.00;;;;;;5068097;28;20021;-74
2023/07/09 06:55:55;;;;;;;3.17;2.10;;;27.10;67.90;;;;;;5070813;28;20066;-74
2023/07/09 06:58:22;;;;;;;2.92;2.33;;;27.10;67.80;;;;;;5061334;28;20304;-74
2023/07/09 07:00:49;;;;;;;2.80;2.05;;;27.20;67.80;;;;;;5056761;28;20548;-74
2023/07/09 07:03:15;;;;;;;3.35;1.85;;;27.30;67.70;;;;;;5066984;28;20036;-74
2023/07/09 07:05:49;;;;;;;3.42;2.58;;;27.40;67.60;;;;;;5068432;28;20052;-74
2023/07/09 07:08:18;;;;;;;3.65;2.05;;;27.40;67.50;;;;;;5066524;28;20430;-74
2023/07/09 07:10:46;;;;;;;3.05;2.30;;;27.40;67.30;;;;;;5071068;28;20022;-74
2023/07/09 07:13:12;;;;;;;2.92;2.35;;;27.40;67.30;;;;;;5084521;28;20027;-63
2023/07/09 07:15:39;;;;;;;2.47;1.80;;;27.50;67.20;;;;;;5073515;28;20024;-64
2023/07/09 07:18:06;;;;;;;4.05;2.65;;;27.60;67.20;;;;;;5072712;28;20035;-64
2023/07/09 07:20:32;;;;;;;3.08;2.08;;;27.60;67.00;;;;;;5077584;28;20543;-63
2023/07/09 07:22:58;;;;;;;4.18;2.28;;;27.70;66.90;;;;;;5079476;28;20087;-64
2023/07/09 07:25:24;;;;;;;3.03;2.22;;;27.70;66.80;;;;;;5063449;28;20452;-64
2023/07/09 07:27:50;;;;;;;3.03;1.83;;;27.80;66.80;;;;;;5057627;28;20048;-63
2023/07/09 07:30:16;;;;;;;3.78;1.70;;;27.90;66.70;;;;;;5067861;28;20501;-63
2023/07/09 07:32:45;;;;;;;2.92;1.65;;;27.90;66.50;;;;;;5069742;28;20048;-63
2023/07/09 07:35:11;;;;;;;2.92;1.77;;;28.00;66.40;;;;;;5075301;28;20029;-63
2023/07/09 07:37:36;;;;;;;2.95;1.92;;;28.10;66.30;;;;;;5079307;28;20626;-63
2023/07/09 07:40:04;;;;;;;2.75;2.20;;;28.10;66.20;;;;;;5074921;28;20390;-64
2023/07/09 07:42:30;;;;;;;2.72;2.20;;;28.20;66.10;;;;;;5070031;28;20097;-64
2023/07/09 07:44:56;;;;;;;2.28;1.60;;;28.30;66.00;;;;;;5069406;28;20016;-64
2023/07/09 07:47:22;;;;;;;2.72;1.88;;;28.40;65.90;;;;;;5076545;28;20066;-64
2023/07/09 07:49:48;;;;;;;3.15;2.67;;;28.50;65.90;;;;;;5075996;28;20052;-63
2023/07/09 07:52:13;;;;;;;3.05;2.17;;;28.50;65.70;;;;;;5066334;28;20029;-64
2023/07/09 07:54:39;;;;;;;3.40;2.28;;;28.60;65.60;;;;;;5075943;28;20058;-64
2023/07/09 07:57:05;;;;;;;3.83;2.30;;;28.70;65.40;;;;;;5070442;28;20044;-64
2023/07/09 07:59:34;;;;;;;2.50;1.98;;;28.70;65.30;;;;;;5068468;28;20131;-64
2023/07/09 08:02:00;;;;;;;3.42;1.95;;;28.80;65.20;;;;;;5067658;28;20058;-63
2023/07/09 08:04:26;;;;;;;2.67;1.90;;;28.90;65.00;;;;;;5068832;28;20024;-64
2023/07/09 08:06:53;;;;;;;2.80;2.00;;;29.00;65.00;;;;;;5068304;28;20020;-64
2023/07/09 08:09:18;;;;;;;2.70;2.15;;;29.10;65.00;;;;;;5066076;28;20036;-63
2023/07/09 08:11:44;;;;;;;1.92;1.70;;;29.20;64.80;;;;;;5055109;28;20075;-74
2023/07/09 08:14:11;;;;;;;1.83;1.42;;;29.20;64.40;;;;;;5071333;28;20055;-64
2023/07/09 08:16:38;;;;;;;3.08;2.08;;;29.30;64.40;;;;;;5073306;28;20033;-74
2023/07/09 08:19:04;;;;;;;2.75;1.98;;;29.40;64.40;;;;;;5070022;28;20489;-74
2023/07/09 08:21:29;;;;;;;6.15;1.80;;;29.50;64.10;;;;;;5067523;28;20032;-74
2023/07/09 08:23:55;;;;;;;3.22;2.13;;;29.60;64.00;;;;;;5077072;28;20028;-75
2023/07/09 08:26:21;;;;;;;3.83;1.75;;;29.60;63.90;;;;;;5070591;28;20039;-75
2023/07/09 08:28:47;;;;;;;7.30;2.25;;;29.70;63.80;;;;;;5072252;28;20035;-75
2023/07/09 08:31:13;;;;;;;3.25;1.58;;;29.80;63.90;;;;;;5074363;28;20052;-75
2023/07/09 08:33:40;;;;;;;2.83;2.03;;;29.90;63.60;;;;;;5066964;28;20391;-74
2023/07/09 08:36:05;;;;;;;3.22;2.05;;;29.90;63.40;;;;;;5071757;28;20020;-74
2023/07/09 08:38:31;;;;;;;3.47;2.58;;;30.00;63.00;;;;;;5073824;28;20035;-75
2023/07/09 08:41:21;;;;;;;2.60;1.73;;;30.10;62.90;;;;;;5068785;28;20419;-75
2023/07/09 08:43:51;;;;;;;1.92;1.48;;;30.10;62.80;;;;;;5062654;28;20029;-75
2023/07/09 08:46:19;;;;;;;1.98;1.50;;;30.20;62.90;;;;;;5068477;28;20398;-75
2023/07/09 08:48:49;;;;;;;6.13;2.22;;;30.30;62.80;;;;;;5072980;28;20383;-75
2023/07/09 08:51:38;;;;;;;3.78;2.42;;;30.30;62.70;;;;;;5070946;28;20035;-75
2023/07/09 08:54:27;;;;;;;2.78;1.85;;;30.40;62.70;;;;;;5061308;28;20024;-75
2023/07/09 08:56:58;;;;;;;1.58;1.45;;;30.50;62.60;;;;;;5071031;28;20040;-75
2023/07/09 08:59:24;;;;;;;2.33;1.80;;;30.60;62.60;;;;;;5065517;28;20044;-75
2023/07/09 09:01:57;;;;;;;3.20;2.47;;;30.70;62.40;;;;;;5065090;28;20028;-75
2023/07/09 09:04:33;;;;;;;1.88;1.63;;;30.70;61.90;;;;;;5068849;28;20082;-74
2023/07/09 09:07:18;;;;;;;2.65;1.75;;;30.80;62.00;;;;;;5064973;28;20028;-75
2023/07/09 09:10:05;;;;;;;2.80;2.10;;;30.80;62.00;;;;;;5066728;28;20032;-64
2023/07/09 09:12:32;;;;;;;3.35;1.77;;;30.90;61.90;;;;;;5064526;28;20024;-75
2023/07/09 09:15:04;;;;;;;3.00;1.40;;;31.00;61.70;;;;;;5070712;28;20029;-64
2023/07/09 09:17:33;;;;;;;;;;;31.00;61.70;;;;;;5070933;28;20450;-64
2023/07/09 09:20:05;;;;;;;4.80;1.83;;;31.20;61.70;;;;;;5065201;28;20347;-64
2023/07/09 09:22:47;;;;;;;4.63;1.63;;;31.20;61.50;;;;;;5060495;28;20021;-64
2023/07/09 09:25:20;;;;;;;3.25;1.70;;;31.30;61.40;;;;;;5064661;28;20016;-64
2023/07/09 09:27:46;;;;;;;2.17;1.70;;;31.40;61.30;;;;;;5066709;28;20052;-64
2023/07/09 09:30:16;;;;;;;2.08;1.60;;;31.50;61.20;;;;;;5078943;28;20033;-64
2023/07/09 09:32:44;;;;;;;3.08;1.65;;;31.60;61.00;;;;;;5073019;28;20094;-64
2023/07/09 09:35:16;;;;;;;1.92;1.35;;;31.70;60.90;;;;;;5077294;28;20020;-64
2023/07/09 09:37:43;;;;;;;;;;;31.80;60.80;;;;;;5080821;28;20067;-64
2023/07/09 09:40:10;;;;;;;2.45;1.52;;;31.90;60.60;;;;;;5069352;28;19965;-64
2023/07/09 09:42:35;;;;;;;2.50;1.95;;;32.00;60.40;;;;;;5074003;28;20032;-64
2023/07/09 09:45:02;;;;;;;2.90;1.83;;;32.00;60.10;;;;;;5075501;28;20117;-64
2023/07/09 09:47:28;;;;;;;2.55;1.55;;;32.10;60.10;;;;;;5078169;28;20031;-64
2023/07/09 09:49:54;;;;;;;1.55;1.40;;;32.20;60.10;;;;;;5081233;28;20033;-64
2023/07/09 09:52:32;;;;;;;3.00;2.08;;;32.30;59.90;;;;;;5074150;28;20722;-64
2023/07/09 09:55:10;;;;;;;3.08;1.50;;;32.40;59.40;;;;;;5064838;28;20059;-64
2023/07/09 09:57:35;;;;;;;2.78;1.75;;;32.50;59.40;;;;;;5074080;28;20439;-65
2023/07/09 10:00:02;;;;;;;3.65;1.80;;;32.60;59.30;;;;;;5072363;28;20024;-65
2023/07/09 10:02:27;;;;;;;3.03;1.50;;;32.60;59.00;;;;;;5071477;28;20024;-64
2023/07/09 10:04:53;;;;;;;1.92;1.55;;;32.70;59.00;;;;;;5069249;28;20032;-64
2023/07/09 10:07:34;;;;;;;3.78;2.33;;;32.80;58.80;;;;;;5073422;28;20457;-75
2023/07/09 10:10:00;;;;;;;1.77;1.38;;;32.90;58.40;;;;;;5069978;28;20036;-64
2023/07/09 10:12:58;;;;;;;3.15;1.48;;;32.90;58.00;;;;;;5075917;28;20115;-64
2023/07/09 10:15:30;;;;;;;3.03;1.80;;;33.00;57.90;;;;;;5068283;28;20475;-64
2023/07/09 10:18:15;;;;;;;;;;;33.10;57.40;;;;;;5076504;28;20566;-64
2023/07/09 10:20:48;;;;;;;2.78;1.70;;;33.30;56.80;;;;;;5066656;28;20295;-64
2023/07/09 10:23:43;;;;;;;2.25;1.50;;;33.30;56.80;;;;;;5070066;28;20398;-64
2023/07/09 10:26:20;;;;;;;1.45;1.20;;;33.40;57.10;;;;;;5075755;28;20044;-64
2023/07/09 10:28:57;;;;;;;3.00;1.63;;;33.50;56.30;;;;;;5072681;28;20433;-64
2023/07/09 10:31:50;;;;;;;3.20;1.85;;;33.70;55.90;;;;;;5075115;28;20036;-64
2023/07/09 10:34:57;;;;;;;1.40;1.30;;;33.80;55.60;;;;;;5096576;28;20036;-63
2023/07/09 10:38:12;;;;;;;2.10;1.77;;;33.90;55.50;;;;;;5010049;28;20034;-64
2023/07/09 10:40:41;;;;;;;1.58;1.35;;;34.10;55.10;;;;;;5073373;28;20483;-64
2023/07/09 10:43:16;;;;;;;2.15;1.40;;;34.10;54.40;;;;;;5063646;28;20032;-64
2023/07/09 10:45:56;;;;;;;4.30;1.83;;;34.10;54.00;;;;;;5078096;28;20157;-64
2023/07/09 10:48:41;;;;;;;1.40;1.30;;;34.30;54.20;;;;;;5077712;28;20024;-64
2023/07/09 10:51:50;;;;;;;1.65;1.30;;;34.40;54.10;;;;;;5066410;28;20032;-64
2023/07/09 10:54:29;;;;;;;2.65;1.80;;;34.70;53.60;;;;;;5066845;28;20024;-64
2023/07/09 10:57:03;;;;;;;2.58;2.25;;;34.70;52.50;;;;;;5077192;28;20021;-76
2023/07/09 10:59:31;;;;;;;1.98;1.50;;;34.70;52.20;;;;;;5083436;28;20048;-75
2023/07/09 11:02:13;;;;;;;2.15;1.58;;;34.90;52.40;;;;;;5081516;28;20017;-75
2023/07/09 11:04:53;;;;;;;1.63;1.50;;;35.00;51.70;;;;;;5073457;28;20467;-64
2023/07/09 11:07:27;;;;;;;1.98;1.40;;;35.00;51.30;;;;;;5070465;28;20555;-64
2023/07/09 11:09:56;;;;;;;1.30;1.20;;;35.10;51.20;;;;;;5076339;28;20024;-64
2023/07/09 11:12:35;;;;;;;1.85;1.50;;;35.30;51.10;;;;;;5075815;28;20032;-64
2023/07/09 11:15:16;;;;;;;1.48;1.30;;;35.50;51.00;;;;;;5077342;28;20475;-64
2023/07/09 11:17:46;;;;;;;4.95;1.83;;;35.60;49.70;;;;;;5059074;28;20037;-64
2023/07/09 11:20:24;;;;;;;3.17;1.75;;;35.60;49.10;;;;;;5069552;28;20111;-76
2023/07/09 11:23:06;;;;;;;1.60;1.08;;;35.70;49.20;;;;;;5067317;28;20471;-76
2023/07/09 11:26:01;;;;;;;2.13;1.77;;;35.80;49.20;;;;;;5068332;28;20016;-76
2023/07/09 11:28:38;;;;;;;1.75;1.63;;;35.90;48.00;;;;;;5071765;28;20067;-76
2023/07/09 11:31:17;;;;;;;1.95;1.67;;;36.00;47.60;;;;;;5063512;28;20054;-64
2023/07/09 11:33:49;;;;;;;1.23;0.98;;;36.00;46.90;;;;;;5070445;28;20025;-64
2023/07/09 11:36:25;;;;;;;1.42;1.30;;;36.00;46.70;;;;;;5073316;28;20028;-64
2023/07/09 11:38:52;;;;;;;1.52;1.38;;;36.10;47.00;;;;;;5085257;28;20028;-64
2023/07/09 11:41:39;;;;;;;1.50;1.38;;;36.30;47.40;;;;;;5072051;28;20032;-64
2023/07/09 11:44:28;;;;;;;1.15;1.08;;;36.40;47.10;;;;;;5068318;28;20077;-76
2023/07/09 11:47:19;;;;;;;1.70;1.27;;;36.40;46.80;;;;;;5064215;28;20045;-76
2023/07/09 11:49:58;;;;;;;1.50;1.30;;;36.50;46.90;;;;;;5067087;28;20463;-64
2023/07/09 11:52:50;;;;;;;3.03;1.88;;;36.60;45.90;;;;;;5071607;28;20060;-77
2023/07/09 11:55:43;;;;;;;1.48;1.30;;;36.50;45.80;;;;;;5070053;28;20111;-75
2023/07/09 11:58:14;;;;;;;1.63;1.40;;;36.50;45.80;;;;;;5056509;28;20049;-64
2023/07/09 12:00:43;;;;;;;2.38;1.60;;;36.50;45.90;;;;;;5070901;28;20123;-64
2023/07/09 12:03:18;;;;;;;3.28;1.63;;;36.40;45.80;;;;;;5069829;28;20032;-64
2023/07/09 12:05:51;;;;;;;1.88;1.38;;;36.40;45.80;;;;;;5068106;28;20024;-76
2023/07/09 12:08:18;;;;;;;1.70;1.60;;;36.30;45.80;;;;;;5067280;28;20073;-64
2023/07/09 12:10:44;;;;;;;1.88;1.60;;;36.20;46.00;;;;;;5068027;28;20048;-64
2023/07/09 12:13:12;;;;;;;1.92;1.83;;;36.10;46.20;;;;;;5072478;28;20034;-64
2023/07/09 12:15:39;;;;;;;1.92;1.83;;;35.90;45.40;;;;;;5073683;28;20028;-64
2023/07/09 12:18:12;;;;;;;2.45;1.63;;;35.80;45.70;;;;;;5069792;28;20028;-64
2023/07/09 12:20:38;;;;;;;2.50;1.50;;;35.70;45.60;;;;;;5066434;28;20029;-76
2023/07/09 12:23:26;;;;;;;2.20;1.85;;;35.70;46.00;;;;;;5072737;28;20451;-76
2023/07/09 12:25:53;;;;;;;1.63;1.27;;;35.80;46.40;;;;;;5068293;28;20554;-76
2023/07/09 12:28:20;;;;;;;3.05;1.63;;;35.70;46.40;;;;;;5067256;28;20029;-76
2023/07/09 12:30:51;;;;;;;2.97;1.70;;;35.60;46.30;;;;;;5068008;28;20033;-75
2023/07/09 12:33:23;;;;;;;1.63;1.38;;;35.40;46.80;;;;;;5071019;28;20028;-64
2023/07/09 12:36:01;;;;;;;1.67;1.25;;;35.30;47.20;;;;;;5069901;28;20125;-64
2023/07/09 12:38:30;;;;;;;1.80;1.30;;;35.30;47.60;;;;;;5070785;28;20059;-76
2023/07/09 12:40:59;;;;;;;4.95;1.55;;;35.20;47.80;;;;;;5071064;28;20387;-64
2023/07/09 12:43:27;;;;;;;1.83;1.50;;;35.00;48.10;;;;;;5068790;28;20020;-64
2023/07/09 12:45:54;;;;;;;1.52;1.40;;;34.90;48.10;;;;;;5070794;28;20025;-74
2023/07/09 12:48:26;;;;;;;1.70;1.58;;;34.90;48.20;;;;;;5074914;28;20036;-76
2023/07/09 12:50:56;;;;;;;1.90;1.70;;;34.80;48.20;;;;;;5069398;28;20028;-64
2023/07/09 12:53:26;;;;;;;1.98;1.73;;;34.70;48.30;;;;;;5070032;28;20020;-77
2023/07/09 12:55:56;;;;;;;1.88;1.27;;;34.60;48.90;;;;;;5069181;28;20020;-76
2023/07/09 12:58:24;;;;;;;1.73;1.20;;;34.60;49.30;;;;;;5069747;28;20045;-64
2023/07/09 13:00:52;;;;;;;2.40;1.15;;;34.60;49.40;;;;;;5067167;28;20020;-73
2023/07/09 13:03:26;;;;;;;1.55;1.35;;;34.70;49.50;;;;;;5074544;28;20062;-64